createdAt,value
2022-08-23T00:00:32.291Z,100569.50
2022-08-23T00:03:35.471Z,100572.59
2022-08-23T00:06:38.449Z,100563.53
2022-08-23T00:09:40.854Z,100563.25
2022-08-23T00:12:45.011Z,100563.84
2022-08-23T00:15:47.083Z,100565.59
2022-08-23T00:18:49.579Z,100573.56
2022-08-23T00:21:54.949Z,100581.56
2022-08-23T00:24:57.086Z,100575.75
2022-08-23T00:27:59.608Z,100563.03
2022-08-23T00:31:01.932Z,100573.81
2022-08-23T00:34:04.172Z,100575.75
2022-08-23T00:37:08.666Z,100576.56
2022-08-23T00:40:13.974Z,100580.97
2022-08-23T00:43:37.127Z,100574.34
2022-08-23T00:47:06.776Z,100583.22
2022-08-23T00:50:49.336Z,100580.47
2022-08-23T00:53:55.762Z,100579.63
2022-08-23T00:57:01.672Z,100584.03
2022-08-23T01:00:08.036Z,100582.38
2022-08-23T01:03:12.387Z,100594.22
2022-08-23T01:06:17.044Z,100590.38
2022-08-23T01:09:21.674Z,100600.53
2022-08-23T01:12:39.692Z,100582.91
2022-08-23T01:15:48.059Z,100584.53
2022-08-23T01:18:51.838Z,100579.84
2022-08-23T01:22:14.689Z,100595.84
2022-08-23T01:25:21.647Z,100586.75
2022-08-23T01:28:25.222Z,100586.47
2022-08-23T01:31:27.513Z,100591.69
2022-08-23T01:34:29.856Z,100583.69
2022-08-23T01:37:37.118Z,100591.97
2022-08-23T01:40:40.487Z,100591.06
2022-08-23T01:43:42.613Z,100590.25
2022-08-23T01:46:47.394Z,100597.41
2022-08-23T01:49:49.509Z,100604.28
2022-08-23T01:52:52.315Z,100580.31
2022-08-23T01:55:56.578Z,100588.31
2022-08-23T01:58:59.824Z,100593.88
2022-08-23T02:02:07.516Z,100600.72
2022-08-23T02:05:10.540Z,100607.88
2022-08-23T02:08:46.419Z,100600.72
2022-08-23T02:11:49.874Z,100606.81
2022-08-23T02:14:52.056Z,100608.16
2022-08-23T02:18:00.481Z,100580.78
2022-08-23T02:21:04.580Z,100617.22
2022-08-23T02:24:14.123Z,100619.97
2022-08-23T02:27:17.330Z,100619.13
2022-08-23T02:30:20.660Z,100614.97
2022-08-23T02:33:22.946Z,100613.31
2022-08-23T02:36:25.406Z,100627.38
2022-08-23T02:39:28.697Z,100622.16
2022-08-23T02:42:31.114Z,100615.47
2022-08-23T02:45:35.160Z,100620.16
2022-08-23T02:48:37.779Z,100635.03
2022-08-23T02:51:41.800Z,100637.56
2022-08-23T02:54:44.555Z,100642.47
2022-08-23T02:57:46.921Z,100636.97
2022-08-23T03:00:50.311Z,100632.56
2022-08-23T03:03:54.059Z,100641.63
2022-08-23T03:06:56.414Z,100646.63
2022-08-23T03:09:59.215Z,100643.56
2022-08-23T03:13:02.946Z,100655.97
2022-08-23T03:16:05.285Z,100649.56
2022-08-23T03:19:07.669Z,100653.66
2022-08-23T03:22:10.099Z,100664.97
2022-08-23T03:25:12.576Z,100675.44
2022-08-23T03:28:47.682Z,100673.19
2022-08-23T03:31:51.756Z,100683.69
2022-08-23T03:34:56.957Z,100691.09
2022-08-23T03:37:59.552Z,100694.69
2022-08-23T03:41:02.031Z,100675.94
2022-08-23T03:44:05.328Z,100683.97
2022-08-23T03:47:11.029Z,100688.13
2022-08-23T03:50:16.398Z,100686.69
2022-08-23T03:53:19.070Z,100688.88
2022-08-23T03:56:24.292Z,100684.78
2022-08-23T03:59:27.996Z,100686.13
2022-08-23T04:02:30.242Z,100699.69
2022-08-23T04:05:32.434Z,100704.06
2022-08-23T04:08:40.352Z,100710.94
2022-08-23T04:11:43.372Z,100718.09
2022-08-23T04:14:45.876Z,100717.81
2022-08-23T04:17:49.868Z,100709.25
2022-08-23T04:20:52.896Z,100707.91
2022-08-23T04:23:58.016Z,100693.03
2022-08-23T04:27:00.310Z,100703.25
2022-08-23T04:30:03.051Z,100704.94
2022-08-23T04:33:09.953Z,100709.56
2022-08-23T04:36:13.963Z,100698.03
2022-08-23T04:39:16.912Z,100705.81
2022-08-23T04:42:21.738Z,100717.41
2022-08-23T04:45:27.258Z,100712.41
2022-08-23T04:48:29.841Z,100720.38
2022-08-23T04:51:32.392Z,100718.41
2022-08-23T04:54:34.651Z,100733.41
2022-08-23T04:58:03.117Z,100733.91
2022-08-23T05:01:11.095Z,100717.81
2022-08-23T05:04:14.545Z,100746.88
2022-08-23T05:07:17.245Z,100751.28
2022-08-23T05:10:20.158Z,100750.44
2022-08-23T05:13:26.458Z,100753.28
2022-08-23T05:16:28.709Z,100747.47
2022-08-23T05:19:47.000Z,100750.84
2022-08-23T05:22:50.716Z,100748.84
2022-08-23T05:26:04.245Z,100752.50
2022-08-23T05:29:11.005Z,100746.69
2022-08-23T05:32:19.164Z,100756.84
2022-08-23T05:35:21.882Z,100754.09
2022-08-23T05:38:25.661Z,100760.44
2022-08-23T05:41:37.888Z,100758.78
2022-08-23T05:44:45.385Z,100755.84
2022-08-23T05:47:47.858Z,100766.31
2022-08-23T05:51:25.371Z,100758.38
2022-08-23T05:54:28.479Z,100755.72
2022-08-23T05:58:09.199Z,100761.22
2022-08-23T06:01:12.091Z,100757.00
2022-08-23T06:04:15.755Z,100766.13
2022-08-23T06:07:19.916Z,100774.47
2022-08-23T06:10:22.405Z,100758.13
2022-08-23T06:13:39.267Z,100774.38
2022-08-23T06:16:44.686Z,100775.78
2022-08-23T06:19:48.139Z,100768.38
2022-08-23T06:22:59.906Z,100773.09
2022-08-23T06:26:02.381Z,100775.78
2022-08-23T06:29:13.717Z,100782.84
2022-08-23T06:32:16.228Z,100782.84
2022-08-23T06:35:41.846Z,100782.66
2022-08-23T06:38:51.062Z,100779.38
2022-08-23T06:45:39.981Z,100777.38
2022-08-23T06:48:44.036Z,100777.34
2022-08-23T06:51:51.247Z,100770.03
2022-08-23T06:55:02.957Z,100793.16
2022-08-23T06:58:23.902Z,100802.22
2022-08-23T07:01:51.111Z,100790.22
2022-08-23T07:05:01.353Z,100784.53
2022-08-23T07:08:24.837Z,100766.56
2022-08-23T07:11:33.160Z,100790.53
2022-08-23T07:14:37.468Z,100787.25
2022-08-23T07:17:39.955Z,100786.78
2022-08-23T07:20:42.285Z,100772.47
2022-08-23T07:23:46.617Z,100773.34
2022-08-23T07:26:52.322Z,100783.00
2022-08-23T07:29:54.869Z,100783.84
2022-08-23T07:32:56.968Z,100789.09
2022-08-23T07:36:03.393Z,100793.75
2022-08-23T07:39:07.522Z,100790.69
2022-08-23T07:42:23.857Z,100788.47
2022-08-23T07:45:29.650Z,100802.88
2022-08-23T07:48:53.072Z,100781.88
2022-08-23T07:52:02.677Z,100788.78
2022-08-23T07:55:05.537Z,100789.03
2022-08-23T07:58:26.888Z,100787.63
2022-08-23T08:02:04.076Z,100799.53
2022-08-23T08:05:07.928Z,100799.00
2022-08-23T08:08:11.160Z,100806.44
2022-08-23T08:11:16.531Z,100796.00
2022-08-23T08:14:18.819Z,100791.38
2022-08-23T08:17:27.616Z,100774.75
2022-08-23T08:21:13.798Z,100796.94
2022-08-23T08:24:42.869Z,100792.00
2022-08-23T08:27:48.376Z,100803.88
2022-08-23T08:30:50.712Z,100793.47
2022-08-23T08:33:53.380Z,100786.81
2022-08-23T08:36:58.959Z,100794.50
2022-08-23T08:40:02.823Z,100787.94
2022-08-23T08:43:39.876Z,100797.19
2022-08-23T08:46:48.059Z,100775.06
2022-08-23T08:50:26.834Z,100790.06
2022-08-23T08:53:42.025Z,100792.59
2022-08-23T08:56:52.717Z,100780.22
2022-08-23T09:00:06.942Z,100784.91
2022-08-23T09:03:20.636Z,100789.03
2022-08-23T09:06:51.879Z,100784.69
2022-08-23T09:10:15.133Z,100785.00
2022-08-23T09:13:56.533Z,100780.63
2022-08-23T09:17:05.593Z,100775.63
2022-08-23T09:20:10.624Z,100779.53
2022-08-23T09:23:35.784Z,100782.00
2022-08-23T09:26:38.248Z,100773.50
2022-08-23T09:29:52.960Z,100775.97
2022-08-23T09:32:56.222Z,100782.09
2022-08-23T09:36:15.402Z,100786.25
2022-08-23T09:39:30.927Z,100778.78
2022-08-23T09:42:39.814Z,100783.50
2022-08-23T09:45:49.174Z,100782.16
2022-08-23T09:48:58.955Z,100782.75
2022-08-23T09:52:26.807Z,100787.44
2022-08-23T09:55:37.345Z,100777.56
2022-08-23T09:58:47.216Z,100776.22
2022-08-23T10:01:59.616Z,100776.44
2022-08-23T10:05:02.240Z,100765.50
2022-08-23T10:08:10.320Z,100774.59
2022-08-23T10:11:31.449Z,100774.63
2022-08-23T10:14:34.495Z,100757.22
2022-08-23T10:17:50.936Z,100768.31
2022-08-23T10:20:58.938Z,100769.44
2022-08-23T10:24:04.412Z,100769.47
2022-08-23T10:27:40.570Z,100771.16
2022-08-23T10:30:56.677Z,100768.13
2022-08-23T10:34:17.542Z,100775.88
2022-08-23T10:37:54.797Z,100772.56
2022-08-23T10:41:35.742Z,100764.34
2022-08-23T10:44:54.401Z,100773.75
2022-08-23T10:48:00.603Z,100775.44
2022-08-23T10:51:09.459Z,100772.97
2022-08-23T10:54:35.098Z,100767.19
2022-08-23T10:57:46.441Z,100763.06
2022-08-23T11:00:51.700Z,100770.81
2022-08-23T11:04:03.454Z,100767.47
2022-08-23T11:07:30.393Z,100762.56
2022-08-23T11:10:39.559Z,100762.06
2022-08-23T11:13:54.716Z,100766.47
2022-08-23T11:17:03.247Z,100761.75
2022-08-23T11:20:09.997Z,100759.28
2022-08-23T11:23:14.836Z,100762.03
2022-08-23T11:26:22.756Z,100763.44
2022-08-23T11:29:25.113Z,100760.41
2022-08-23T11:32:50.255Z,100764.81
2022-08-23T11:36:21.896Z,100744.66
2022-08-23T11:39:25.403Z,100743.28
2022-08-23T11:42:37.536Z,100748.53
2022-08-23T11:45:46.593Z,100747.72
2022-08-23T11:49:10.745Z,100733.38
2022-08-23T11:52:46.623Z,100749.66
2022-08-23T11:56:18.924Z,100747.75
2022-08-23T11:59:21.224Z,100732.00
2022-08-23T12:02:53.190Z,100738.41
2022-08-23T12:05:55.540Z,100740.91
2022-08-23T12:09:03.506Z,100741.44
2022-08-23T12:12:39.419Z,100740.88
2022-08-23T12:16:16.645Z,100708.56
2022-08-23T12:19:34.033Z,100738.13
2022-08-23T12:23:05.953Z,100729.28
2022-08-23T12:26:14.220Z,100728.72
2022-08-23T12:29:27.967Z,100720.97
2022-08-23T12:33:05.283Z,100731.75
2022-08-23T12:36:52.244Z,100717.38
2022-08-23T12:39:58.409Z,100722.66
2022-08-23T12:43:17.453Z,100704.38
2022-08-23T12:46:43.845Z,100717.66
2022-08-23T12:50:00.534Z,100711.03
2022-08-23T12:53:12.550Z,100703.84
2022-08-23T12:56:19.870Z,100711.31
2022-08-23T12:59:36.769Z,100717.94
2022-08-23T13:02:39.040Z,100710.19
2022-08-23T13:05:46.219Z,100715.44
2022-08-23T13:09:08.393Z,100720.16
2022-08-23T13:12:11.500Z,100714.34
2022-08-23T13:15:51.115Z,100709.91
2022-08-23T13:18:53.790Z,100701.91
2022-08-23T13:22:12.486Z,100715.97
2022-08-23T13:25:31.354Z,100712.94
2022-08-23T13:28:34.195Z,100708.25
2022-08-23T13:32:03.067Z,100710.47
2022-08-23T13:35:33.992Z,100706.03
2022-08-23T13:38:36.753Z,100685.03
2022-08-23T13:41:39.381Z,100701.91
2022-08-23T13:44:43.254Z,100705.78
2022-08-23T13:47:52.013Z,100704.38
2022-08-23T13:50:54.163Z,100702.16
2022-08-23T13:53:58.589Z,100707.72
2022-08-23T13:57:03.346Z,100698.31
2022-08-23T14:00:09.288Z,100705.75
2022-08-23T14:03:14.150Z,100693.91
2022-08-23T14:06:16.319Z,100693.34
2022-08-23T14:09:18.732Z,100685.34
2022-08-23T14:12:29.577Z,100700.25
2022-08-23T14:22:17.837Z,100689.44
2022-08-23T14:25:20.632Z,100694.69
2022-08-23T14:28:26.595Z,100689.69
2022-08-23T14:31:32.349Z,100687.75
2022-08-23T14:34:34.730Z,100678.66
2022-08-23T14:41:03.437Z,100686.69
2022-08-23T14:44:06.532Z,100688.34
2022-08-23T14:47:08.685Z,100675.41
2022-08-23T14:50:13.358Z,100685.59
2022-08-23T14:53:17.876Z,100685.84
2022-08-23T14:56:21.748Z,100691.69
2022-08-23T14:59:24.077Z,100681.19
2022-08-23T15:02:29.175Z,100685.34
2022-08-23T15:05:31.331Z,100689.75
2022-08-23T15:08:33.596Z,100690.81
2022-08-23T15:14:57.856Z,100681.72
2022-08-23T15:18:03.023Z,100690.00
2022-08-23T15:21:05.558Z,100685.31
2022-08-23T15:24:08.105Z,100677.03
2022-08-23T15:27:10.825Z,100677.28
2022-08-23T15:30:15.786Z,100684.75
2022-08-23T15:33:20.449Z,100675.34
2022-08-23T15:36:24.738Z,100675.94
2022-08-23T15:39:27.313Z,100667.66
2022-08-23T15:42:29.554Z,100677.00
2022-08-23T15:45:33.529Z,100669.56
2022-08-23T15:48:49.137Z,100684.22
2022-08-23T15:51:51.366Z,100648.88
2022-08-23T15:54:54.606Z,100679.81
2022-08-23T15:57:59.799Z,100684.22
2022-08-23T16:01:01.842Z,100683.69
2022-08-23T16:04:04.377Z,100683.41
2022-08-23T16:07:08.013Z,100674.31
2022-08-23T16:10:12.706Z,100685.91
2022-08-23T16:13:15.440Z,100686.72
2022-08-23T16:16:23.044Z,100698.06
2022-08-23T16:19:26.665Z,100703.31
2022-08-23T16:22:30.078Z,100698.91
2022-08-23T16:25:32.939Z,100705.50
2022-08-23T16:28:35.536Z,100702.50
2022-08-23T16:31:41.219Z,100696.94
2022-08-23T16:34:49.576Z,100703.00
2022-08-23T16:37:56.167Z,100706.31
2022-08-23T16:40:58.978Z,100704.38
2022-08-23T16:44:01.481Z,100703.25
2022-08-23T16:47:06.669Z,100709.31
2022-08-23T16:50:10.341Z,100717.03
2022-08-23T16:53:13.250Z,100722.81
2022-08-23T16:56:19.425Z,100731.34
2022-08-23T16:59:22.142Z,100729.69
2022-08-23T17:02:37.065Z,100741.78
2022-08-23T17:05:39.375Z,100740.38
2022-08-23T17:08:41.955Z,100745.31
2022-08-23T17:11:45.046Z,100746.94
2022-08-23T17:14:52.206Z,100748.84
2022-08-23T17:17:54.969Z,100751.84
2022-08-23T17:20:57.997Z,100750.97
2022-08-23T17:24:00.642Z,100762.56
2022-08-23T17:27:03.025Z,100762.53
2022-08-23T17:30:06.594Z,100773.00
2022-08-23T17:33:10.786Z,100761.63
2022-08-23T17:36:27.679Z,100771.84
2022-08-23T17:39:29.785Z,100774.78
2022-08-23T17:42:32.764Z,100770.03
2022-08-23T17:45:44.499Z,100788.25
2022-08-23T17:48:46.825Z,100782.69
2022-08-23T17:51:49.482Z,100791.19
2022-08-23T17:54:51.978Z,100790.13
2022-08-23T17:57:57.685Z,100792.16
2022-08-23T18:01:06.647Z,100797.09
2022-08-23T18:04:08.867Z,100789.75
2022-08-23T18:07:11.007Z,100798.16
2022-08-23T18:10:13.417Z,100802.91
2022-08-23T18:13:15.593Z,100802.97
2022-08-23T18:16:18.312Z,100786.44
2022-08-23T18:19:21.159Z,100786.13
2022-08-23T18:22:23.398Z,100799.44
2022-08-23T18:25:26.058Z,100799.44
2022-08-23T18:28:28.438Z,100819.59
2022-08-23T18:31:32.528Z,100813.53
2022-08-23T18:34:36.649Z,100811.88
2022-08-23T18:37:38.982Z,100817.13
2022-08-23T18:40:46.031Z,100812.94
2022-08-23T18:43:48.459Z,100813.47
2022-08-23T18:46:51.648Z,100820.38
2022-08-23T18:49:53.819Z,100815.38
2022-08-23T18:52:56.055Z,100815.38
2022-08-23T18:55:58.458Z,100801.84
2022-08-23T18:59:01.850Z,100804.31
2022-08-23T19:02:04.244Z,100743.38
2022-08-23T19:05:07.229Z,100797.09
2022-08-23T19:08:10.681Z,100789.34
2022-08-23T19:11:13.242Z,100788.25
2022-08-23T19:14:15.634Z,100805.63
2022-08-23T19:17:17.965Z,100794.84
2022-08-23T19:20:21.208Z,100773.28
2022-08-23T19:23:23.492Z,100781.84
2022-08-23T19:26:31.873Z,100790.63
2022-08-23T19:29:34.805Z,100796.94
2022-08-23T19:32:39.637Z,100803.53
2022-08-23T19:35:42.449Z,100795.22
2022-08-23T19:38:44.760Z,100814.53
2022-08-23T19:41:48.614Z,100817.84
2022-08-23T19:44:50.853Z,100822.53
2022-08-23T19:47:54.025Z,100815.88
2022-08-23T19:50:56.660Z,100818.06
2022-08-23T19:54:11.055Z,100809.75
2022-08-23T19:57:13.877Z,100808.06
2022-08-23T20:00:19.627Z,100811.09
2022-08-23T20:03:22.288Z,100797.56
2022-08-23T20:06:24.625Z,100798.34
2022-08-23T20:09:29.802Z,100815.44
2022-08-23T20:12:33.323Z,100822.34
2022-08-23T20:15:35.665Z,100828.94
2022-08-23T20:18:37.869Z,100854.84
2022-08-23T20:21:41.329Z,100859.78
2022-08-23T20:24:51.347Z,100843.50
2022-08-23T20:27:54.381Z,100829.94
2022-08-23T20:30:56.570Z,100841.78
2022-08-23T20:33:59.988Z,100844.00
2022-08-23T20:37:03.042Z,100842.28
2022-08-23T20:40:10.300Z,100836.75
2022-08-23T20:43:12.422Z,100834.19
2022-08-23T20:46:15.187Z,100833.06
2022-08-23T20:49:17.742Z,100837.72
2022-08-23T20:52:19.932Z,100840.75
2022-08-23T20:55:22.106Z,100849.53
2022-08-23T20:58:24.964Z,100871.06
2022-08-23T21:01:27.103Z,100879.91
2022-08-23T21:04:30.209Z,100886.81
2022-08-23T21:07:32.762Z,100873.84
2022-08-23T21:10:35.355Z,100872.72
2022-08-23T21:13:41.445Z,100886.25
2022-08-23T21:16:43.878Z,100888.44
2022-08-23T21:19:46.053Z,100888.94
2022-08-23T21:22:48.189Z,100892.28
2022-08-23T21:25:57.586Z,100907.16
2022-08-23T21:28:59.748Z,100903.50
2022-08-23T21:32:02.012Z,100911.50
2022-08-23T21:35:04.859Z,100924.47
2022-08-23T21:38:07.000Z,100929.94
2022-08-23T21:41:12.236Z,100949.41
2022-08-23T21:44:17.299Z,100958.50
2022-08-23T21:47:20.894Z,100955.50
2022-08-23T21:50:24.563Z,100944.69
2022-08-23T21:53:31.277Z,100943.28
2022-08-23T21:56:33.601Z,100946.34
2022-08-23T21:59:35.749Z,100942.16
2022-08-23T22:02:37.948Z,100933.59
2022-08-23T22:05:42.278Z,100939.41
2022-08-23T22:08:45.519Z,100935.00
2022-08-23T22:11:49.525Z,100935.53
2022-08-23T22:14:51.685Z,100936.63
2022-08-23T22:17:53.820Z,100946.81
2022-08-23T22:20:57.555Z,100939.56
2022-08-23T22:24:00.263Z,100963.84
2022-08-23T22:27:02.386Z,100960.50
2022-08-23T22:30:05.812Z,100971.16
2022-08-23T22:33:07.977Z,100987.22
2022-08-23T22:36:13.560Z,100974.88
2022-08-23T22:39:15.726Z,100990.44
2022-08-23T22:42:17.892Z,100972.81
2022-08-23T22:45:20.140Z,100981.59
2022-08-23T22:48:22.864Z,101002.03
2022-08-23T22:51:31.139Z,101014.63
2022-08-23T22:54:33.125Z,101001.44
2022-08-23T22:57:35.674Z,101006.63
2022-08-23T23:00:44.049Z,101015.06
2022-08-23T23:03:46.933Z,101028.34
2022-08-23T23:06:51.431Z,101034.00
2022-08-23T23:09:53.796Z,101041.03
2022-08-23T23:12:56.010Z,101054.34
2022-08-23T23:16:02.333Z,101068.31
2022-08-23T23:19:23.716Z,101062.94
2022-08-23T23:22:25.856Z,101084.38
2022-08-23T23:25:28.300Z,101078.75
2022-08-23T23:28:34.077Z,101082.56
2022-08-23T23:31:37.204Z,101086.38
2022-08-23T23:34:39.461Z,101085.91
2022-08-23T23:37:41.634Z,101083.97
2022-08-23T23:40:43.967Z,101105.56
2022-08-23T23:43:46.743Z,101109.69
2022-08-23T23:46:49.794Z,101117.59
2022-08-23T23:49:52.369Z,101127.91
2022-08-23T23:52:55.309Z,101130.31
2022-08-23T23:56:01.630Z,101141.53
2022-08-23T23:59:03.963Z,101148.19
